Flight Track Log - Related Links

Times and Time Zones

All times are in EDT time to prevent confusion due to time zone crossing. See the CHQ5030 flight status page for this flight to view local times or setup timezone preferences in your user account.


Time Position Orientation Groundspeed Altitude Reporting Facility
EDT Latitude Longitude Course Direction KTS MPH feet Rate Location/Type
Fri 11:56:15 AM 40.6772 -89.6762 351° North  Level FlightAware Approximate
Fri 11:57:15 AM 40.7500 -89.6667 329° Northwest  Level FlightAware Approximate
Fri 11:58:15 AM 40.8210 -89.6500 234° Southwest  Level FlightAware Approximate
Fri 11:59:08 AM 40.7928 -89.7011 13° North 256 295 4,700  Level Chicago Center
Fri 12:00:08 PM 40.8533 -89.6819 14° North 259 298 7,300 2,400 Climbing Chicago Center
Fri 12:01:08 PM 40.9264 -89.6578 13° North 289 333 9,500 1,750 Climbing Chicago Center
Fri 12:02:08 PM 41.0056 -89.6333 13° North 294 338 10,800 750 Climbing Chicago Center
Fri 12:03:08 PM 41.1017 -89.6033 33° Northeast 317 365 11,000 100 Climbing Chicago Center
Fri 12:04:08 PM 41.1831 -89.5319 61° Northeast 346 398 11,000  Level Chicago Center
Fri 12:05:08 PM 41.2353 -89.4053 63° Northeast 382 440 11,000  Level Chicago Center
Fri 12:06:08 PM 41.2811 -89.2836 62° Northeast 365 420 11,000  Level Chicago Center
Fri 12:07:08 PM 41.3269 -89.1703 62° Northeast 360 414 11,000  Level Chicago Center
Fri 12:08:08 PM 41.3744 -89.0511 62° Northeast 355 409 11,000  Level Chicago Center
Fri 12:09:08 PM 41.4222 -88.9317 62° Northeast 355 409 11,000  Level Chicago Center
Fri 12:10:08 PM 41.4694 -88.8122 61° Northeast 355 409 11,000  Level Chicago Center
Fri 12:11:08 PM 41.5128 -88.7094 62° Northeast 340 391 11,000 -50 Level Chicago Center
Fri 12:12:08 PM 41.5519 -88.6092 55° Northeast 319 367 10,900 -150 Descending Chicago Center
Fri 12:13:08 PM 41.5969 -88.5225 50° Northeast 296 341 10,700 -700 Descending Chicago Center
Fri 12:14:08 PM 41.6506 -88.4383 41° Northeast 291 335 9,500 -1,200 Descending Chicago Center
Fri 12:15:08 PM 41.7106 -88.3681 359° North 283 326 8,300 -1,050 Descending Chicago Center
Fri 12:16:08 PM 41.7814 -88.3697 357° North 261 300 7,400 -650 Descending Chicago Center
Fri 12:17:08 PM 41.8503 -88.3742 336° Northwest 251 289 7,000 -500 Descending Chicago Center
Fri 12:18:08 PM 41.9111 -88.4097 15° North 240 276 6,400 -650 Descending Chicago Center
Fri 12:19:08 PM 41.9672 -88.3892 90° East 194 223 5,700 -480 Descending Chicago Center
Fri 12:21:03 PM 41.9667 -88.2500 90° East 188 216 5,000 -480 Descending Chicago TRACON
Fri 12:22:03 PM 41.9667 -88.1667 90° East 194 223 4,300 -850 Descending Chicago TRACON
Fri 12:23:03 PM 41.9667 -88.1000 90° East 197 227 3,300 -1,000 Descending Chicago TRACON

Login

Don't have an account? Register now (free) for customized features, flight alerts, and more!